Map

Track Data

SID SEASON NUMBER BASIN SUBBASIN NAME ISO_TIME NATURE LAT LON WMO_WIND WMO_PRES WMO_AGENCY TRACK_TYPE DIST2LAND LANDFALL IFLAG USA_AGENCY USA_ATCF_ID USA_LAT USA_LON USA_RECORD USA_STATUS USA_WIND USA_PRES USA_SSHS USA_R34_NE USA_R34_SE USA_R34_SW USA_R34_NW USA_R50_NE USA_R50_SE USA_R50_SW USA_R50_NW USA_R64_NE USA_R64_SE USA_R64_SW USA_R64_NW USA_POCI USA_ROCI USA_RMW USA_EYE TOKYO_LAT TOKYO_LON TOKYO_GRADE TOKYO_WIND TOKYO_PRES TOKYO_R50_DIR TOKYO_R50_LONG TOKYO_R50_SHORT TOKYO_R30_DIR TOKYO_R30_LONG TOKYO_R30_SHORT TOKYO_LAND CMA_LAT CMA_LON CMA_CAT CMA_WIND CMA_PRES HKO_LAT HKO_LON HKO_CAT HKO_WIND HKO_PRES NEWDELHI_LAT NEWDELHI_LON NEWDELHI_GRADE NEWDELHI_WIND NEWDELHI_PRES NEWDELHI_CI NEWDELHI_DP NEWDELHI_POCI REUNION_LAT REUNION_LON REUNION_TYPE REUNION_WIND REUNION_PRES REUNION_TNUM REUNION_CI REUNION_RMW REUNION_R34_NE REUNION_R34_SE REUNION_R34_SW REUNION_R34_NW REUNION_R50_NE REUNION_R50_SE REUNION_R50_SW REUNION_R50_NW REUNION_R64_NE REUNION_R64_SE REUNION_R64_SW REUNION_R64_NW BOM_LAT BOM_LON BOM_TYPE BOM_WIND BOM_PRES BOM_TNUM BOM_CI BOM_RMW BOM_R34_NE BOM_R34_SE BOM_R34_SW BOM_R34_NW BOM_R50_NE BOM_R50_SE BOM_R50_SW BOM_R50_NW BOM_R64_NE BOM_R64_SE BOM_R64_SW BOM_R64_NW BOM_ROCI BOM_POCI BOM_EYE BOM_POS_METHOD BOM_PRES_METHOD NADI_LAT NADI_LON NADI_CAT NADI_WIND NADI_PRES WELLINGTON_LAT WELLINGTON_LON WELLINGTON_WIND WELLINGTON_PRES DS824_LAT DS824_LON DS824_STAGE DS824_WIND DS824_PRES TD9636_LAT TD9636_LON TD9636_STAGE TD9636_WIND TD9636_PRES TD9635_LAT TD9635_LON TD9635_WIND TD9635_PRES TD9635_ROCI NEUMANN_LAT NEUMANN_LON NEUMANN_CLASS NEUMANN_WIND NEUMANN_PRES MLC_LAT MLC_LON MLC_CLASS MLC_WIND MLC_PRES USA_GUST BOM_GUST BOM_GUST_PER REUNION_GUST REUNION_GUST_PER USA_SEAHGT USA_SEARAD_NE USA_SEARAD_SE USA_SEARAD_SW USA_SEARAD_NW STORM_SPEED STORM_DIR
1980177N13259 1980 42 EP MM CELIA 1980-06-25 06:00:00 TS 13.5000 -101.400 25 hurdat_epa main 402 402 O________OO___ hurdat_epa EP031980 13.5000 -101.400 TD 25 -1 13.5000 -101.400 TC 25 13.5000 -101.400 1 25 11 285
1980177N13259 1980 42 EP MM CELIA 1980-06-25 09:00:00 TS 13.6402 -101.950 main 423 412 P________PP___ EP031980 13.6402 -101.950 TD 25 -1 13.6402 -101.950 TC 25 13.6401 -101.951 1 25 11 286
1980177N13259 1980 42 EP MM CELIA 1980-06-25 12:00:00 TS 13.8000 -102.500 25 hurdat_epa main 419 417 O________OO___ hurdat_epa EP031980 13.8000 -102.500 TD 25 -1 13.8000 -102.500 TC 25 13.8000 -102.500 1 25 11 288
1980177N13259 1980 42 EP MM CELIA 1980-06-25 15:00:00 TS 13.9926 -103.049 main 421 421 P________PP___ EP031980 13.9924 -103.050 TD 32 -1 13.9924 -103.050 TC 32 13.9937 -103.046 1 30 11 291
1980177N13259 1980 42 EP MM CELIA 1980-06-25 18:00:00 TS 14.2013 -103.599 40 hurdat_epa main 436 429 O________OP___ hurdat_epa EP031980 14.2000 -103.600 TS 40 0 14.2000 -103.600 TC 40 14.2063 -103.593 1 35 11 292
1980177N13259 1980 42 EP MM CELIA 1980-06-25 21:00:00 TS 14.4151 -104.149 main 433 426 P________PP___ EP031980 14.4149 -104.150 TS 42 0 14.4149 -104.150 TC 42 14.4158 -104.143 1 40 11 290
1980177N13259 1980 42 EP MM CELIA 1980-06-26 00:00:00 TS 14.6000 -104.700 45 hurdat_epa main 433 429 O________OO___ hurdat_epa EP031980 14.6000 -104.700 TS 45 0 14.6000 -104.700 TC 45 14.6000 -104.700 2 45 11 286
1980177N13259 1980 42 EP MM CELIA 1980-06-26 03:00:00 TS 14.7150 -105.245 main 441 441 P________PP___ EP031980 14.7148 -105.243 TS 50 0 14.7148 -105.243 TC 50 14.7157 -105.252 2 48 11 281
1980177N13259 1980 42 EP MM CELIA 1980-06-26 06:00:00 TS 14.8012 -105.803 55 hurdat_epa main 462 462 O________OP___ hurdat_epa EP031980 14.8000 -105.800 TS 55 0 14.8000 -105.800 TC 55 14.8061 -105.813 2 52 11 279
1980177N13259 1980 42 EP MM CELIA 1980-06-26 09:00:00 TS 14.8926 -106.387 main 490 490 P________PP___ EP031980 14.8923 -106.385 TS 57 0 14.8923 -106.385 TC 57 14.8935 -106.393 2 56 12 280
1980177N13259 1980 42 EP MM CELIA 1980-06-26 12:00:00 TS 15.0000 -107.000 60 hurdat_epa main 524 524 O________OO___ hurdat_epa EP031980 15.0000 -107.000 TS 60 0 15.0000 -107.000 TC 60 15.0000 -107.000 2 60 12 282
1980177N13259 1980 42 EP MM CELIA 1980-06-26 15:00:00 TS 15.1430 -107.650 main 552 543 P________PP___ EP031980 15.1424 -107.650 TS 62 0 15.1424 -107.650 TC 62 15.1451 -107.651 2 62 13 283
1980177N13259 1980 42 EP MM CELIA 1980-06-26 18:00:00 TS 15.3000 -108.300 65 hurdat_epa main 573 573 O________OO___ hurdat_epa EP031980 15.3000 -108.300 HU 65 1 15.3000 -108.300 TC 65 15.3000 -108.300 3 65 13 284
1980177N13259 1980 42 EP MM CELIA 1980-06-26 21:00:00 TS 15.4423 -108.908 main 608 600 P________PP___ EP031980 15.4423 -108.908 HU 65 1 15.4423 -108.908 TC 65 15.4424 -108.911 3 65 12 285
1980177N13259 1980 42 EP MM CELIA 1980-06-27 00:00:00 TS 15.6000 -109.500 65 hurdat_epa main 639 639 O________OO___ hurdat_epa EP031980 15.6000 -109.500 HU 65 1 15.6000 -109.500 TC 65 15.6000 -109.500 4 65 12 287
1980177N13259 1980 42 EP MM CELIA 1980-06-27 03:00:00 TS 15.7849 -110.105 main 669 669 P________PP___ EP031980 15.7849 -110.108 HU 65 1 15.7849 -110.108 TC 65 15.7851 -110.095 4 65 12 289
1980177N13259 1980 42 EP MM CELIA 1980-06-27 06:00:00 TS 15.9997 -110.696 65 hurdat_epa main 705 705 O________OP___ hurdat_epa EP031980 16.0000 -110.700 HU 65 1 16.0000 -110.700 TC 65 15.9986 -110.681 4 65 12 292
1980177N13259 1980 42 EP MM CELIA 1980-06-27 09:00:00 TS 16.2294 -111.262 main 745 737 P________PP___ EP031980 16.2274 -111.265 HU 65 1 16.2274 -111.265 TC 65 16.2377 -111.251 4 65 12 295
1980177N13259 1980 42 EP MM CELIA 1980-06-27 12:00:00 TS 16.5000 -111.800 65 hurdat_epa main 740 719 O________OO___ hurdat_epa EP031980 16.5000 -111.800 HU 65 1 16.5000 -111.800 TC 65 16.5000 -111.800 4 65 12 301
1980177N13259 1980 42 EP MM CELIA 1980-06-27 15:00:00 TS 16.8379 -112.312 main 723 701 P________PP___ EP031980 16.8498 -112.307 HU 65 1 16.8498 -112.307 TC 65 16.7901 -112.330 4 65 12 305
1980177N13259 1980 42 EP MM CELIA 1980-06-27 18:00:00 TS 17.1799 -112.807 65 hurdat_epa main 701 694 O________OP___ hurdat_epa EP031980 17.2000 -112.800 HU 65 1 17.2000 -112.800 TC 65 17.0994 -112.837 4 65 11 303
1980177N13259 1980 42 EP MM CELIA 1980-06-27 21:00:00 TS 17.4537 -113.311 main 695 695 P________PP___ EP031980 17.4649 -113.308 HU 65 1 17.4649 -113.308 TC 65 17.4090 -113.327 4 65 11 299
1980177N13259 1980 42 EP MM CELIA 1980-06-28 00:00:00 TS 17.7000 -113.800 65 hurdat_epa main 703 700 O________OO___ hurdat_epa EP031980 17.7000 -113.800 HU 65 1 17.7000 -113.800 TC 65 17.7000 -113.800 4 65 10 299
1980177N13259 1980 42 EP MM CELIA 1980-06-28 03:00:00 TS 17.9526 -114.258 main 707 707 P________PP___ EP031980 17.9573 -114.258 HU 65 1 17.9573 -114.258 TC 65 17.9338 -114.261 4 65 10 300
1980177N13259 1980 42 EP MM CELIA 1980-06-28 06:00:00 TS 18.1898 -114.702 65 hurdat_epa main 717 716 O________OP___ hurdat_epa EP031980 18.2000 -114.700 HU 65 1 18.2000 -114.700 TC 65 18.1493 -114.709 4 65 9 297
1980177N13259 1980 42 EP MM CELIA 1980-06-28 09:00:00 TS 18.3869 -115.145 main 731 731 P________PP___ EP031980 18.3923 -115.143 HU 65 1 18.3923 -115.143 TC 65 18.3651 -115.152 4 65 9 296
1980177N13259 1980 42 EP MM CELIA 1980-06-28 12:00:00 TS 18.6000 -115.600 65 hurdat_epa main 754 754 O________OO___ hurdat_epa EP031980 18.6000 -115.600 HU 65 1 18.6000 -115.600 TC 65 18.6000 -115.600 4 65 10 299
1980177N13259 1980 42 EP MM CELIA 1980-06-28 15:00:00 TS 18.8804 -116.095 main 767 763 P________PP___ EP031980 18.8850 -116.100 HU 60 0 18.8850 -116.100 TC 60 18.8621 -116.076 4 61 11 302
1980177N13259 1980 42 EP MM CELIA 1980-06-28 18:00:00 TS 19.1895 -116.592 55 hurdat_epa main 770 767 O________OP___ hurdat_epa EP031980 19.2000 -116.600 TS 55 0 19.2000 -116.600 TC 55 19.1474 -116.558 4 57 11 304
1980177N13259 1980 42 EP MM CELIA 1980-06-28 21:00:00 TS 19.4857 -117.059 main 776 773 P________PP___ EP031980 19.4924 -117.065 TS 52 0 19.4924 -117.065 TC 52 19.4590 -117.036 4 53 11 306
1980177N13259 1980 42 EP MM CELIA 1980-06-29 00:00:00 TS 19.8000 -117.500 50 hurdat_epa main 780 778 O________OO___ hurdat_epa EP031980 19.8000 -117.500 TS 50 0 19.8000 -117.500 TC 50 19.8000 -117.500 2 50 10 309
1980177N13259 1980 42 EP MM CELIA 1980-06-29 03:00:00 TS 20.1386 -117.911 main 786 778 P________PP___ EP031980 20.1273 -117.900 TS 40 0 20.1273 -117.900 TC 40 20.1836 -117.955 2 45 11 313
1980177N13259 1980 42 EP MM CELIA 1980-06-29 06:00:00 TS 20.5186 -118.319 30 hurdat_epa main 788 788 O________OP___ hurdat_epa EP031980 20.5000 -118.300 TD 30 -1 20.5000 -118.300 TC 30 20.5929 -118.394 2 40 12 316
1980177N13259 1980 42 EP MM CELIA 1980-06-29 09:00:00 TS 20.9612 -118.768 main 797 797 P________PP___ EP031980 20.9500 -118.757 TD 30 -1 20.9500 -118.757 TC 30 21.0058 -118.811 2 35 12 317
1980177N13259 1980 42 EP MM CELIA 1980-06-29 12:00:00 TS 21.4000 -119.200 30 hurdat_epa main 809 800 O________OO___ hurdat_epa EP031980 21.4000 -119.200 TD 30 -1 21.4000 -119.200 TC 30 21.4000 -119.200 1 30 11 317
1980177N13259 1980 42 EP MM CELIA 1980-06-29 15:00:00 TS 21.7721 -119.570 main 800 795 P________PP___ EP031980 21.7750 -119.572 TD 27 -1 21.7750 -119.572 TC 27 21.7604 -119.558 1 27 10 317
1980177N13259 1980 42 EP MM CELIA 1980-06-29 18:00:00 TS 22.1000 -119.900 25 hurdat_epa main 795 O________OO___ hurdat_epa EP031980 22.1000 -119.900 TD 25 -1 22.1000 -119.900 TC 25 22.1000 -119.900 1 25 9 317

About IBTrACS Database

This database is a web-friendly format of International Best Track Archive for Climate Stewardship (IBTrACS), a global best track data archive curated by NOAA dating back to 1842.

Updated: 2021-10-21